Time;durP1;ratioP1;P1;durP2;ratioP2;P2;SDS_P1;SDS_P2;PMS_P1;PMS_P2;Temp;Humidity;BMP_temperature;BMP_pressure;BME280_temperature;BME280_humidity;BME280_pressure;Samples;Min_cycle;Max_cycle;Signal;HPM_P1;HPM_P2
2024/03/29 00:02:04;;;;;;;10.80;4.00;;;;;;;9.59;81.69;98251.96;107577;1252;72679;-39
2024/03/29 00:04:33;;;;;;;11.10;4.00;;;;;;;9.53;81.75;98251.33;107618;1253;60445;-39
2024/03/29 00:07:01;;;;;;;9.20;4.00;;;;;;;9.48;81.82;98246.13;107653;1253;60412;-39
2024/03/29 00:09:28;;;;;;;8.70;3.90;;;;;;;9.43;81.77;98244.55;107612;1253;73783;-39
2024/03/29 00:11:55;;;;;;;8.30;3.70;;;;;;;9.45;81.63;98243.48;107607;1253;66301;-39
2024/03/29 00:14:23;;;;;;;9.40;4.70;;;;;;;9.47;81.50;98244.35;107598;1253;71575;-40
2024/03/29 00:16:50;;;;;;;9.40;4.10;;;;;;;9.46;81.58;98248.58;107567;1252;61228;-40
2024/03/29 00:19:17;;;;;;;9.80;4.50;;;;;;;9.42;81.67;98243.46;107586;1253;61114;-40
2024/03/29 00:21:45;;;;;;;8.70;4.20;;;;;;;9.39;81.65;98241.36;107598;1253;73593;-40
2024/03/29 00:24:12;;;;;;;8.30;3.80;;;;;;;9.37;81.73;98239.18;107602;1252;67601;-39
2024/03/29 00:26:40;;;;;;;14.40;4.50;;;;;;;9.41;81.25;98245.69;107557;1253;72627;-39
2024/03/29 00:29:07;;;;;;;16.70;4.80;;;;;;;9.40;80.89;98244.91;107607;1253;61391;-39
2024/03/29 00:31:35;;;;;;;10.90;4.60;;;;;;;9.29;80.94;98254.29;107578;1252;60963;-39
2024/03/29 00:34:02;;;;;;;9.50;4.50;;;;;;;9.17;81.12;98256.21;107586;1253;74683;-39
2024/03/29 00:36:30;;;;;;;9.40;4.50;;;;;;;9.05;81.32;98254.91;107622;1253;66453;-39
2024/03/29 00:38:57;;;;;;;9.40;4.00;;;;;;;8.97;81.57;98253.90;107603;1256;72687;-39
2024/03/29 00:41:24;;;;;;;10.80;4.50;;;;;;;8.94;81.45;98252.89;107568;1253;61254;-39
2024/03/29 00:43:52;;;;;;;11.70;4.50;;;;;;;8.94;81.45;98250.72;107544;1253;61292;-40
2024/03/29 00:46:19;;;;;;;10.80;4.90;;;;;;;8.90;81.65;98254.17;107587;1251;73431;-40
2024/03/29 00:48:47;;;;;;;12.60;4.90;;;;;;;8.86;81.79;98256.38;107589;1252;65695;-39
2024/03/29 00:51:14;;;;;;;14.70;5.10;;;;;;;8.79;81.98;98253.84;107638;1253;71391;-38
2024/03/29 00:53:42;;;;;;;15.20;5.30;;;;;;;8.74;82.28;98255.67;107604;1253;61699;-39
2024/03/29 00:56:09;;;;;;;11.90;5.30;;;;;;;8.73;82.38;98253.58;107638;1251;61221;-38
2024/03/29 00:58:37;;;;;;;12.70;4.50;;;;;;;8.76;82.36;98260.39;107626;1252;74665;-38
2024/03/29 01:01:04;;;;;;;14.80;6.00;;;;;;;8.72;82.46;98253.18;107629;1253;67606;-39
2024/03/29 01:03:31;;;;;;;14.70;5.40;;;;;;;8.67;82.68;98257.47;107600;1253;72716;-38
2024/03/29 01:05:59;;;;;;;13.00;5.50;;;;;;;8.63;82.94;98250.94;107628;1253;61121;-39
2024/03/29 01:08:26;;;;;;;15.60;5.30;;;;;;;8.61;83.07;98252.48;107602;1253;60314;-40
2024/03/29 01:10:53;;;;;;;11.00;5.20;;;;;;;8.63;82.90;98245.46;107614;1253;74605;-39
2024/03/29 01:13:21;;;;;;;12.50;6.00;;;;;;;8.63;82.90;98250.23;107597;1257;67606;-39
2024/03/29 01:15:49;;;;;;;13.30;5.30;;;;;;;8.58;82.86;98249.04;107595;1253;71667;-39
2024/03/29 01:18:16;;;;;;;13.80;5.60;;;;;;;8.53;82.87;98247.92;107616;1253;61244;-39
2024/03/29 01:20:43;;;;;;;17.00;5.30;;;;;;;8.54;82.80;98243.06;107520;1253;60395;-39
2024/03/29 01:23:11;;;;;;;10.60;5.00;;;;;;;8.57;82.59;98242.63;107573;1253;73439;-39
2024/03/29 01:25:38;;;;;;;10.90;4.80;;;;;;;8.58;82.44;98240.63;107583;1252;66822;-39
2024/03/29 01:28:06;;;;;;;12.70;5.10;;;;;;;8.60;82.36;98245.59;107651;1253;72652;-39
2024/03/29 01:30:33;;;;;;;11.30;5.20;;;;;;;8.59;82.16;98246.52;107608;1253;60471;-39
2024/03/29 01:33:01;;;;;;;11.30;5.20;;;;;;;8.58;81.87;98248.96;107634;1253;61110;-39
2024/03/29 01:35:28;;;;;;;13.80;5.10;;;;;;;8.62;81.39;98249.92;107641;1252;74629;-39
2024/03/29 01:37:55;;;;;;;10.70;4.70;;;;;;;8.66;80.82;98254.38;107633;1253;66128;-39
2024/03/29 01:40:23;;;;;;;11.60;5.20;;;;;;;8.62;80.36;98257.65;107609;1253;72651;-39
2024/03/29 01:42:54;;;;;;;12.70;4.90;;;;;;;8.55;80.34;98253.96;107622;1253;61224;-39
2024/03/29 01:45:21;;;;;;;12.50;5.60;;;;;;;8.50;80.18;98254.83;107503;1253;61112;-39
2024/03/29 01:47:49;;;;;;;13.90;5.30;;;;;;;8.43;80.09;98250.67;107491;1253;73397;-39
2024/03/29 01:50:16;;;;;;;12.90;5.30;;;;;;;8.40;79.97;98248.19;107601;1253;65320;-39
2024/03/29 01:52:43;;;;;;;14.50;5.10;;;;;;;8.44;79.53;98248.98;107571;1253;72687;-39
2024/03/29 01:55:11;;;;;;;12.60;4.40;;;;;;;8.43;79.19;98249.21;107594;1253;61216;-39
2024/03/29 01:57:39;;;;;;;9.90;4.90;;;;;;;8.38;79.23;98249.00;107573;1253;61091;-39
2024/03/29 02:00:07;;;;;;;9.90;4.80;;;;;;;8.36;79.17;98250.22;107502;1253;74742;-39
2024/03/29 02:02:34;;;;;;;12.40;5.40;;;;;;;8.32;79.09;98247.64;107530;1253;67655;-39
2024/03/29 02:05:01;;;;;;;11.70;5.30;;;;;;;8.27;79.11;98250.96;107378;1253;72741;-40
2024/03/29 02:07:29;;;;;;;10.20;4.90;;;;;;;8.28;78.74;98243.97;107628;1253;61238;-39
2024/03/29 02:09:56;;;;;;;15.50;5.70;;;;;;;8.32;78.52;98246.11;107607;1253;61118;-39
2024/03/29 02:12:24;;;;;;;11.20;5.30;;;;;;;8.31;78.49;98242.70;107593;1257;73341;-39
2024/03/29 02:14:51;;;;;;;12.30;5.20;;;;;;;8.29;78.45;98245.52;107615;1253;67400;-39
2024/03/29 02:17:18;;;;;;;10.60;5.10;;;;;;;8.28;78.25;98244.81;107609;1253;72655;-39
2024/03/29 02:19:45;;;;;;;9.90;5.20;;;;;;;8.25;78.04;98244.15;107632;1253;60475;-39
2024/03/29 02:22:15;;;;;;;14.20;5.50;;;;;;;8.22;77.95;98240.98;107611;1253;61078;-39
2024/03/29 02:24:42;;;;;;;10.90;4.60;;;;;;;8.26;77.54;98244.63;107618;1252;74680;-39
2024/03/29 02:27:09;;;;;;;16.10;5.70;;;;;;;8.31;77.27;98239.77;107642;1253;66649;-39
2024/03/29 02:29:37;;;;;;;14.30;5.20;;;;;;;8.32;77.09;98236.54;107616;1253;72831;-39
2024/03/29 02:32:04;;;;;;;10.20;5.30;;;;;;;8.32;76.99;98239.09;107585;1252;61140;-39
2024/03/29 02:34:32;;;;;;;12.50;5.10;;;;;;;8.29;76.75;98238.56;107700;1251;61164;-39
2024/03/29 02:37:00;;;;;;;16.50;5.70;;;;;;;8.26;76.52;98235.91;107625;1253;74655;-39
2024/03/29 02:39:28;;;;;;;15.70;5.80;;;;;;;8.21;76.41;98237.02;107635;1253;67637;-39
2024/03/29 02:41:55;;;;;;;14.80;5.40;;;;;;;8.16;76.22;98239.96;107574;1253;72658;-39
2024/03/29 02:44:23;;;;;;;12.30;5.60;;;;;;;8.15;75.99;98238.26;107594;1253;61755;-39
2024/03/29 02:46:50;;;;;;;12.00;5.30;;;;;;;8.16;75.92;98239.12;107613;1251;61305;-39
2024/03/29 02:49:17;;;;;;;12.20;5.20;;;;;;;8.15;75.87;98240.27;107642;1251;74647;-39
2024/03/29 02:51:45;;;;;;;11.60;5.50;;;;;;;8.10;75.97;98245.22;107625;1253;68153;-39
2024/03/29 02:54:12;;;;;;;12.00;5.50;;;;;;;8.09;75.94;98241.43;107631;1252;71472;-39
2024/03/29 02:56:39;;;;;;;11.30;5.60;;;;;;;8.07;75.80;98239.51;107531;1252;61036;-39
2024/03/29 02:59:07;;;;;;;11.50;5.30;;;;;;;8.04;75.70;98235.98;107514;1253;60998;-39
2024/03/29 03:01:34;;;;;;;11.60;5.30;;;;;;;8.07;75.41;98234.48;107513;1253;74646;-39
2024/03/29 03:04:02;;;;;;;11.00;5.50;;;;;;;8.10;75.22;98237.66;107548;1253;67649;-39
2024/03/29 03:06:29;;;;;;;17.30;6.10;;;;;;;8.06;75.12;98239.10;107580;1253;71535;-39
2024/03/29 03:11:44;;;;;;;19.60;5.80;;;;;;;8.02;75.13;98237.05;107611;1252;61094;-39
2024/03/29 03:14:11;;;;;;;10.70;5.40;;;;;;;8.00;75.07;98234.09;107615;1252;74915;-39
2024/03/29 03:16:38;;;;;;;13.90;6.10;;;;;;;7.99;75.07;98235.46;107603;1253;67706;-39
2024/03/29 03:19:06;;;;;;;12.00;5.70;;;;;;;8.05;74.95;98237.15;107611;1253;72512;-39
2024/03/29 03:21:35;;;;;;;10.20;5.20;;;;;;;8.15;74.62;98235.64;107622;1253;61311;-39
2024/03/29 03:24:04;;;;;;;12.90;5.10;;;;;;;8.17;74.13;98239.22;107672;1256;59985;-39
2024/03/29 03:26:31;;;;;;;9.70;4.90;;;;;;;8.16;73.95;98234.27;107648;1253;74653;-39
2024/03/29 03:29:03;;;;;;;12.60;5.00;;;;;;;8.16;73.72;98235.73;107618;1253;67655;-39
2024/03/29 03:31:30;;;;;;;12.20;4.80;;;;;;;8.13;73.49;98232.15;107620;1253;71425;-39
2024/03/29 03:33:58;;;;;;;13.40;5.80;;;;;;;8.14;73.38;98236.09;107607;1256;61317;-39
2024/03/29 03:36:25;;;;;;;13.70;5.00;;;;;;;8.12;73.11;98237.46;107599;1253;61216;-39
2024/03/29 03:38:52;;;;;;;10.60;4.50;;;;;;;8.16;72.94;98237.66;107641;1253;74644;-39
2024/03/29 03:41:20;;;;;;;10.40;4.40;;;;;;;8.25;72.88;98234.66;107636;1254;67698;-39
2024/03/29 03:43:47;;;;;;;8.30;4.40;;;;;;;8.30;72.86;98232.02;107614;1255;71760;-39
2024/03/29 03:46:15;;;;;;;11.80;5.10;;;;;;;8.35;72.68;98229.84;107613;1253;61222;-39
2024/03/29 03:48:42;;;;;;;8.80;4.50;;;;;;;8.40;72.54;98230.13;107621;1252;61215;-39
2024/03/29 03:51:09;;;;;;;10.60;4.80;;;;;;;8.46;72.49;98229.80;107597;1251;73316;-39
2024/03/29 03:53:37;;;;;;;9.10;4.90;;;;;;;8.51;72.36;98227.37;107598;1251;67790;-39
2024/03/29 03:56:08;;;;;;;11.20;5.20;;;;;;;8.55;72.26;98228.72;107648;1253;71703;-39
2024/03/29 03:58:36;;;;;;;11.20;5.10;;;;;;;8.58;72.11;98227.05;107426;1253;61777;-39
2024/03/29 04:01:04;;;;;;;12.30;5.20;;;;;;;8.64;71.55;98231.58;107567;1251;61116;-39
2024/03/29 04:03:32;;;;;;;12.00;4.70;;;;;;;8.66;71.48;98232.05;107621;1253;74622;-39
2024/03/29 04:06:03;;;;;;;11.10;5.30;;;;;;;8.67;71.42;98230.90;107600;1253;68825;-39
2024/03/29 04:08:30;;;;;;;12.50;5.40;;;;;;;8.67;71.19;98235.76;107659;1251;72679;-39
2024/03/29 04:10:58;;;;;;;11.20;5.30;;;;;;;8.65;71.12;98235.83;107658;1253;61801;-39
2024/03/29 04:13:26;;;;;;;10.20;5.10;;;;;;;8.62;71.02;98235.33;107667;1253;60383;-40
2024/03/29 04:16:00;;;;;;;13.30;5.40;;;;;;;8.60;70.93;98236.48;107638;1253;74642;-39
2024/03/29 04:18:27;;;;;;;49.20;33.00;;;;;;;8.59;70.86;98236.01;107482;1252;67579;-39
2024/03/29 04:20:58;;;;;;;48.70;29.50;;;;;;;8.59;70.80;98237.09;107608;1253;72655;-38
2024/03/29 04:23:26;;;;;;;35.90;21.00;;;;;;;8.66;70.73;98236.05;107628;1253;61680;-39
2024/03/29 04:25:54;;;;;;;81.80;53.70;;;;;;;8.71;70.41;98229.86;107641;1251;60408;-38
2024/03/29 04:28:21;;;;;;;46.70;30.30;;;;;;;8.77;70.42;98235.52;107646;1253;73464;-38
2024/03/29 04:30:56;;;;;;;17.30;10.10;;;;;;;8.79;70.39;98236.17;107646;1253;66632;-38
2024/03/29 04:33:23;;;;;;;16.40;10.40;;;;;;;8.82;70.20;98236.10;107648;1253;71441;-38
2024/03/29 04:35:54;;;;;;;48.10;34.00;;;;;;;8.85;70.23;98240.46;107635;1257;61224;-38
2024/03/29 04:38:22;;;;;;;20.50;10.40;;;;;;;8.89;70.04;98241.42;107665;1252;61400;-38
2024/03/29 04:40:51;;;;;;;11.30;7.60;;;;;;;8.92;69.97;98238.49;107694;1253;74676;-38
2024/03/29 04:43:20;;;;;;;12.90;6.20;;;;;;;8.94;69.80;98237.22;107672;1253;67698;-39
2024/03/29 04:45:48;;;;;;;14.10;6.70;;;;;;;8.97;69.70;98240.70;107617;1253;72668;-38
2024/03/29 04:48:15;;;;;;;9.20;4.30;;;;;;;9.06;69.64;98242.94;107610;1253;60353;-39
2024/03/29 04:50:43;;;;;;;10.60;4.60;;;;;;;9.19;69.36;98240.30;107665;1253;59969;-39
2024/03/29 04:53:12;;;;;;;8.30;4.20;;;;;;;9.25;69.37;98243.52;107621;1253;74725;-39
2024/03/29 04:55:40;;;;;;;9.00;5.00;;;;;;;9.30;69.37;98249.41;107530;1258;67583;-39
2024/03/29 04:58:07;;;;;;;12.60;4.60;;;;;;;9.31;69.17;98247.65;107609;1253;72713;-39
2024/03/29 05:00:34;;;;;;;10.00;4.50;;;;;;;9.34;69.05;98247.13;107604;1253;61284;-39
2024/03/29 05:03:02;;;;;;;9.10;4.70;;;;;;;9.37;68.86;98255.64;107556;1253;61173;-38
2024/03/29 05:05:29;;;;;;;9.40;5.00;;;;;;;9.38;68.72;98254.42;107599;1253;74633;-39
2024/03/29 05:07:57;;;;;;;10.80;5.20;;;;;;;9.38;68.87;98258.52;107612;1256;66425;-39
2024/03/29 05:10:24;;;;;;;12.30;4.90;;;;;;;9.39;69.07;98252.33;107600;1253;72702;-39
2024/03/29 05:12:51;;;;;;;9.80;4.40;;;;;;;9.46;69.21;98250.20;107594;1254;61674;-39
2024/03/29 05:15:19;;;;;;;8.10;4.80;;;;;;;9.54;68.85;98245.15;107577;1256;61757;-39
2024/03/29 05:17:46;;;;;;;12.70;4.70;;;;;;;9.59;68.83;98245.23;107582;1252;74742;-39
2024/03/29 05:20:14;;;;;;;10.40;4.40;;;;;;;9.58;68.67;98248.80;107612;1253;67023;-39
2024/03/29 05:22:41;;;;;;;18.30;5.20;;;;;;;9.58;68.69;98242.92;107625;1253;72678;-39
2024/03/29 05:25:10;;;;;;;11.50;4.60;;;;;;;9.60;68.76;98242.54;107592;1253;61328;-39
2024/03/29 05:27:38;;;;;;;9.70;5.40;;;;;;;9.62;68.65;98250.38;107612;1253;61197;-39
2024/03/29 05:30:07;;;;;;;9.90;6.10;;;;;;;9.61;68.45;98258.79;107643;1254;74609;-39
2024/03/29 05:32:34;;;;;;;13.70;6.20;;;;;;;9.58;68.04;98265.73;107714;1255;66637;-38
2024/03/29 05:35:02;;;;;;;13.40;5.70;;;;;;;9.55;68.27;98267.02;107603;1256;72736;-38
2024/03/29 05:37:29;;;;;;;14.30;6.30;;;;;;;9.54;68.43;98263.62;107636;1253;61313;-38
2024/03/29 05:39:59;;;;;;;7.00;4.40;;;;;;;9.60;68.21;98258.08;107520;1253;61251;-38
2024/03/29 05:42:27;;;;;;;7.90;4.90;;;;;;;9.63;68.23;98250.69;107568;1254;73393;-38
2024/03/29 05:44:54;;;;;;;9.20;4.40;;;;;;;9.64;68.39;98246.58;107555;1253;66279;-38
2024/03/29 05:47:22;;;;;;;7.40;4.30;;;;;;;9.68;68.51;98268.48;107630;1253;71387;-38
2024/03/29 05:49:49;;;;;;;11.10;4.50;;;;;;;9.68;68.69;98277.38;107612;1253;61133;-38
2024/03/29 05:52:16;;;;;;;8.80;4.50;;;;;;;9.66;68.76;98271.80;107686;1253;61337;-38
2024/03/29 05:54:45;;;;;;;9.50;5.40;;;;;;;9.65;68.92;98272.55;107629;1253;74701;-39
2024/03/29 05:57:13;;;;;;;8.80;4.20;;;;;;;9.63;69.21;98275.05;107636;1252;66739;-39
2024/03/29 05:59:40;;;;;;;12.90;3.80;;;;;;;9.65;69.44;98270.86;107612;1253;71427;-38
2024/03/29 06:02:07;;;;;;;7.80;3.50;;;;;;;9.76;69.46;98284.30;107639;1253;61289;-38
2024/03/29 06:04:37;;;;;;;8.90;3.90;;;;;;;9.76;69.77;98293.81;107657;1252;61213;-38
2024/03/29 06:07:05;;;;;;;10.80;3.90;;;;;;;9.75;70.07;98297.20;107621;1253;74688;-38
2024/03/29 06:09:33;;;;;;;7.60;4.10;;;;;;;9.72;70.26;98297.81;107669;1257;66293;-38
2024/03/29 06:12:00;;;;;;;7.10;3.70;;;;;;;9.72;70.67;98306.95;107621;1252;72654;-38
2024/03/29 06:17:24;;;;;;;12.70;3.60;;;;;;;9.70;71.12;98313.72;107609;1253;60091;-38
2024/03/29 06:19:55;;;;;;;8.50;4.10;;;;;;;9.73;71.47;98325.48;107639;1257;74736;-39
2024/03/29 06:22:25;;;;;;;8.60;4.10;;;;;;;9.69;71.73;98333.14;107702;1253;67925;-38
2024/03/29 06:24:53;;;;;;;9.00;3.80;;;;;;;9.62;72.38;98334.24;107596;1256;73207;-38
2024/03/29 06:27:22;;;;;;;8.90;3.90;;;;;;;9.53;73.33;98334.19;107603;1253;61241;-38
2024/03/29 06:29:50;;;;;;;10.20;4.90;;;;;;;9.44;74.27;98334.06;107594;1256;61178;-38
2024/03/29 06:32:18;;;;;;;8.60;4.30;;;;;;;9.41;74.72;98332.64;107600;1253;73508;-39
2024/03/29 06:34:45;;;;;;;7.80;3.70;;;;;;;9.39;75.06;98336.19;107498;1253;67608;-39
2024/03/29 06:37:13;;;;;;;12.60;5.10;;;;;;;9.35;75.63;98329.66;107588;1253;71403;-39
2024/03/29 06:39:42;;;;;;;7.30;3.60;;;;;;;9.30;76.11;98323.76;107562;1253;61210;-39
2024/03/29 06:42:10;;;;;;;9.20;4.10;;;;;;;9.25;76.50;98321.77;107538;1253;61171;-38
2024/03/29 06:44:38;;;;;;;8.60;3.90;;;;;;;9.22;76.96;98332.41;107598;1253;74776;-38
2024/03/29 06:47:07;;;;;;;9.30;4.00;;;;;;;9.22;77.29;98334.36;107574;1253;67884;-39
2024/03/29 06:49:35;;;;;;;10.10;4.70;;;;;;;9.25;77.59;98329.36;107612;1253;72648;-39
2024/03/29 06:52:03;;;;;;;12.40;4.60;;;;;;;9.27;77.80;98330.54;107631;1252;62417;-39
2024/03/29 06:54:33;;;;;;;10.10;4.30;;;;;;;9.26;78.07;98328.59;107646;1253;61496;-38
2024/03/29 06:57:01;;;;;;;11.20;4.00;;;;;;;9.23;78.48;98322.16;107592;1252;73390;-39
2024/03/29 06:59:28;;;;;;;11.30;3.80;;;;;;;9.24;78.74;98314.43;107575;1253;66453;-39
2024/03/29 07:01:55;;;;;;;9.20;3.40;;;;;;;9.32;78.81;98315.89;107639;1253;71420;-39
2024/03/29 07:04:24;;;;;;;9.10;3.80;;;;;;;9.43;78.77;98309.78;107634;1253;61244;-39
2024/03/29 07:06:52;;;;;;;8.80;3.90;;;;;;;9.48;78.93;98309.04;107617;1253;61208;-38
2024/03/29 07:09:21;;;;;;;8.30;3.60;;;;;;;9.51;78.99;98300.39;107571;1253;73723;-38
2024/03/29 07:11:49;;;;;;;8.80;3.90;;;;;;;9.60;79.27;98301.92;107558;1252;70135;-37
2024/03/29 07:14:18;;;;;;;7.50;3.90;;;;;;;9.69;79.50;98301.27;107625;1253;71876;-37
2024/03/29 07:16:46;;;;;;;8.30;3.60;;;;;;;9.82;79.36;98304.67;107664;1253;61731;-38
2024/03/29 07:19:15;;;;;;;8.90;3.40;;;;;;;9.94;79.13;98303.94;107627;1256;60375;-38
2024/03/29 07:21:43;;;;;;;8.20;3.30;;;;;;;10.01;79.17;98306.70;107621;1253;72193;-38
2024/03/29 07:24:13;;;;;;;7.80;3.20;;;;;;;10.05;78.81;98312.81;107632;1253;66428;-38
2024/03/29 07:26:41;;;;;;;7.30;3.50;;;;;;;10.07;78.44;98316.36;107622;1253;71476;-38
2024/03/29 07:29:10;;;;;;;7.20;3.60;;;;;;;10.09;78.21;98308.95;107650;1253;64087;-37
2024/03/29 07:31:38;;;;;;;8.90;3.30;;;;;;;10.16;78.10;98315.34;107614;1253;61190;-38
2024/03/29 07:34:05;;;;;;;6.90;3.40;;;;;;;10.22;78.00;98306.48;107644;1253;74618;-38
2024/03/29 07:36:35;;;;;;;6.70;3.40;;;;;;;10.24;78.14;98302.92;107599;1252;67596;-38
2024/03/29 07:39:04;;;;;;;8.20;4.10;;;;;;;10.21;78.50;98301.52;107640;1257;74825;-37
2024/03/29 07:41:31;;;;;;;9.50;3.60;;;;;;;10.19;78.77;98295.55;107608;1254;61164;-38
2024/03/29 07:44:00;;;;;;;9.20;3.50;;;;;;;10.20;78.69;98296.11;107593;1253;61241;-38
2024/03/29 07:46:28;;;;;;;8.40;3.30;;;;;;;10.26;78.56;98294.27;107579;1253;75041;-39
2024/03/29 07:48:56;;;;;;;7.70;3.40;;;;;;;10.34;78.49;98299.79;107598;1254;68136;-38
2024/03/29 07:51:23;;;;;;;6.60;3.40;;;;;;;10.37;78.49;98295.45;107600;1254;74823;-39
2024/03/29 07:53:52;;;;;;;7.80;3.90;;;;;;;10.39;78.62;98294.92;107585;1254;61123;-39
2024/03/29 07:56:21;;;;;;;7.00;3.60;;;;;;;10.40;78.41;98291.60;107570;1253;61236;-39
2024/03/29 07:58:52;;;;;;;8.20;3.50;;;;;;;10.39;78.37;98290.28;107564;1253;73370;-39
2024/03/29 08:01:23;;;;;;;7.60;3.60;;;;;;;10.44;78.17;98287.50;107629;1254;67700;-39
2024/03/29 08:03:57;;;;;;;7.60;3.50;;;;;;;10.49;77.85;98291.15;107606;1256;72703;-39
2024/03/29 08:06:25;;;;;;;7.60;3.60;;;;;;;10.47;78.14;98290.13;107621;1252;61211;-39
2024/03/29 08:08:52;;;;;;;8.40;3.70;;;;;;;10.48;78.30;98287.35;107623;1254;61121;-39
2024/03/29 08:11:20;;;;;;;6.30;3.60;;;;;;;10.46;78.27;98287.04;107604;1253;74778;-39
2024/03/29 08:13:48;;;;;;;8.50;3.90;;;;;;;10.42;78.22;98286.48;107531;1253;66012;-39
2024/03/29 08:16:17;;;;;;;7.20;3.80;;;;;;;10.43;78.45;98284.09;107648;1253;72939;-39
2024/03/29 08:18:48;;;;;;;6.80;3.50;;;;;;;10.33;78.62;98268.98;107606;1253;61215;-39
2024/03/29 08:21:15;;;;;;;8.50;4.20;;;;;;;10.24;79.00;98265.08;107485;1257;185871;-39
2024/03/29 08:25:02;;;;;;;9.30;4.10;;;;;;;10.04;79.98;98256.17;104251;1290;600101;-38
2024/03/29 08:27:29;;;;;;;8.70;4.80;;;;;;;9.90;80.35;98243.13;106605;1269;60637;-38
2024/03/29 08:29:56;;;;;;;11.20;5.00;;;;;;;9.85;81.03;98248.69;106658;1270;59529;-38
2024/03/29 08:32:24;;;;;;;8.20;3.90;;;;;;;9.73;81.89;98244.85;106719;1266;71791;-38
2024/03/29 08:34:52;;;;;;;7.40;3.60;;;;;;;9.69;82.60;98251.48;106705;1270;67775;-38
2024/03/29 08:37:19;;;;;;;7.50;3.50;;;;;;;9.71;82.95;98258.76;106726;1269;74919;-39
2024/03/29 08:39:47;;;;;;;9.90;4.00;;;;;;;9.71;83.34;98260.23;107102;1257;206858;-38
2024/03/29 08:42:17;;;;;;;8.30;3.70;;;;;;;9.67;83.82;98258.66;107292;1254;60465;-39
2024/03/29 08:44:47;;;;;;;10.40;3.90;;;;;;;9.64;84.09;98257.48;107271;1257;73060;-38
2024/03/29 08:47:15;;;;;;;8.10;4.40;;;;;;;9.65;84.32;98258.95;107200;1257;66816;-38
2024/03/29 08:49:42;;;;;;;9.80;4.70;;;;;;;9.63;84.64;98259.89;107233;1269;71487;-38
2024/03/29 08:52:10;;;;;;;8.10;4.70;;;;;;;9.60;85.04;98264.02;107145;1260;61947;-38
2024/03/29 08:54:37;;;;;;;12.50;4.50;;;;;;;9.64;85.38;98264.52;107214;1260;62238;-38
2024/03/29 08:57:05;;;;;;;8.10;4.20;;;;;;;9.74;85.50;98261.39;107221;1257;72708;-38
2024/03/29 08:59:32;;;;;;;7.10;4.20;;;;;;;9.77;85.74;98266.14;107262;1258;68999;-38
2024/03/29 09:02:06;;;;;;;9.90;4.20;;;;;;;9.80;86.06;98268.77;107280;1260;72836;-38
2024/03/29 09:04:34;;;;;;;11.20;4.60;;;;;;;9.85;86.09;98273.73;107208;1260;62455;-38
2024/03/29 09:07:03;;;;;;;8.60;5.30;;;;;;;9.95;85.58;98271.23;107275;1257;60279;-38
2024/03/29 09:09:34;;;;;;;9.80;5.10;;;;;;;10.02;85.37;98274.34;107302;1256;72746;-39
2024/03/29 09:12:02;;;;;;;7.80;5.30;;;;;;;10.04;85.06;98276.59;107296;1257;68062;-38
2024/03/29 09:14:29;;;;;;;8.70;5.40;;;;;;;10.07;85.31;98271.27;107315;1257;73008;-39
2024/03/29 09:16:57;;;;;;;6.20;4.20;;;;;;;10.12;85.29;98269.66;107244;1260;60485;-39
2024/03/29 09:19:24;;;;;;;8.70;4.30;;;;;;;10.22;85.15;98267.00;107262;1260;60347;-38
2024/03/29 09:21:52;;;;;;;6.90;4.20;;;;;;;10.38;85.40;98266.50;107270;1258;73995;-38
2024/03/29 09:24:22;;;;;;;6.90;4.00;;;;;;;10.51;85.29;98264.73;107251;1260;70482;-39
2024/03/29 09:26:50;;;;;;;6.80;4.20;;;;;;;10.57;84.93;98264.98;107252;1257;72828;-39
2024/03/29 09:29:20;;;;;;;6.70;3.70;;;;;;;10.64;84.83;98265.15;107276;1258;63980;-38
2024/03/29 09:31:47;;;;;;;9.80;3.80;;;;;;;10.78;83.88;98261.90;107294;1257;62106;-39
2024/03/29 09:34:15;;;;;;;6.70;3.90;;;;;;;10.84;82.94;98261.61;107300;1257;72650;-39
2024/03/29 09:36:42;;;;;;;7.20;3.90;;;;;;;10.83;82.85;98260.98;107220;1256;67820;-39
2024/03/29 09:39:10;;;;;;;4.70;3.40;;;;;;;10.82;82.96;98260.52;107116;1257;71513;-39
2024/03/29 09:41:39;;;;;;;5.90;3.60;;;;;;;10.85;82.56;98261.91;107092;1260;61807;-39
2024/03/29 09:44:06;;;;;;;8.50;3.80;;;;;;;10.91;81.84;98261.52;107232;1258;60326;-39
2024/03/29 09:46:34;;;;;;;7.80;3.80;;;;;;;10.93;81.74;98261.60;107219;1257;74047;-39
2024/03/29 09:49:02;;;;;;;5.40;3.50;;;;;;;10.95;81.95;98277.63;107276;1258;68113;-39
2024/03/29 09:51:30;;;;;;;5.70;3.60;;;;;;;10.96;82.03;98293.13;107128;1257;70861;-39
2024/03/29 09:53:59;;;;;;;5.70;3.90;;;;;;;11.00;81.68;98292.83;107172;1257;61316;-39
2024/03/29 09:56:26;;;;;;;6.00;3.30;;;;;;;11.04;80.97;98287.31;107118;1256;60366;-39
2024/03/29 09:58:54;;;;;;;8.80;4.40;;;;;;;10.97;80.56;98285.54;107197;1256;73980;-39
2024/03/29 10:01:21;;;;;;;9.00;4.40;;;;;;;10.88;80.92;98290.34;107146;1258;66788;-39
2024/03/29 10:03:51;;;;;;;6.50;4.20;;;;;;;10.85;81.30;98294.36;107228;1261;73087;-39
2024/03/29 10:06:22;;;;;;;8.80;3.70;;;;;;;10.86;81.54;98304.20;107254;1256;63907;-39
2024/03/29 10:08:50;;;;;;;6.50;4.00;;;;;;;10.91;81.46;98316.98;107213;1257;60220;-39
2024/03/29 10:11:18;;;;;;;7.10;3.90;;;;;;;10.92;81.28;98322.50;107182;1257;72741;-39
2024/03/29 10:13:46;;;;;;;9.10;4.20;;;;;;;10.83;81.48;98309.70;107286;1258;66872;-39
2024/03/29 10:16:18;;;;;;;6.60;3.80;;;;;;;10.79;81.79;98313.34;107255;1257;71511;-39
2024/03/29 10:18:47;;;;;;;8.20;4.00;;;;;;;10.80;81.95;98323.80;107264;1256;63882;-39
2024/03/29 10:21:15;;;;;;;6.60;3.60;;;;;;;10.89;81.76;98328.52;107253;1256;60354;-39
2024/03/29 10:23:43;;;;;;;7.70;4.50;;;;;;;10.94;81.51;98333.20;107256;1258;74085;-39
2024/03/29 10:26:12;;;;;;;7.70;4.20;;;;;;;10.95;81.83;98335.82;107200;1257;66827;-39
2024/03/29 10:28:40;;;;;;;7.00;4.90;;;;;;;10.97;82.03;98339.39;107154;1256;73077;-39
2024/03/29 10:31:07;;;;;;;8.00;4.70;;;;;;;11.01;82.14;98347.05;107169;1256;61002;-39
2024/03/29 10:33:36;;;;;;;11.20;5.40;;;;;;;11.05;81.90;98334.59;107284;1257;60444;-39
2024/03/29 10:36:04;;;;;;;9.60;5.70;;;;;;;11.22;81.72;98340.55;107292;1258;75440;-38
2024/03/29 10:38:32;;;;;;;8.00;5.20;;;;;;;11.29;81.88;98341.56;107324;1257;66805;-39
2024/03/29 10:41:00;;;;;;;10.40;6.70;;;;;;;11.32;81.90;98347.61;107257;1260;73059;-39
2024/03/29 10:43:28;;;;;;;10.70;7.10;;;;;;;11.33;81.81;98349.07;107179;1257;60438;-39
2024/03/29 10:45:59;;;;;;;9.30;6.40;;;;;;;11.34;81.69;98354.96;107207;1257;62185;-39
2024/03/29 10:48:29;;;;;;;9.50;5.50;;;;;;;11.42;81.34;98363.26;107266;1257;73998;-39
2024/03/29 10:50:57;;;;;;;9.80;6.40;;;;;;;11.44;80.67;98368.70;107290;1257;65545;-39
2024/03/29 10:53:26;;;;;;;7.60;5.50;;;;;;;11.34;80.60;98390.24;107204;1260;71832;-39
2024/03/29 10:55:54;;;;;;;5.60;3.60;;;;;;;11.23;80.50;98399.23;107227;1257;60451;-39
2024/03/29 10:58:24;;;;;;;5.00;3.30;;;;;;;11.09;80.38;98401.70;107273;1255;60540;-39
2024/03/29 11:00:53;;;;;;;6.80;3.90;;;;;;;11.03;80.83;98400.54;107161;1258;73972;-39
2024/03/29 11:03:41;;;;;;;6.70;3.70;;;;;;;11.02;81.02;98400.07;107306;1257;67918;-39
2024/03/29 11:06:08;;;;;;;7.50;4.00;;;;;;;10.94;81.43;98393.54;107249;1260;71502;-39
2024/03/29 11:08:42;;;;;;;6.60;4.00;;;;;;;10.89;81.93;98391.36;107156;1256;60220;-39
2024/03/29 11:11:09;;;;;;;8.00;4.00;;;;;;;10.83;82.24;98400.64;107265;1257;60383;-39
2024/03/29 11:13:52;;;;;;;5.40;4.00;;;;;;;10.85;82.49;98406.30;107054;1256;71857;-39
2024/03/29 11:16:20;;;;;;;7.10;3.70;;;;;;;10.85;82.59;98405.67;107125;1257;67870;-39
2024/03/29 11:18:48;;;;;;;5.20;3.50;;;;;;;10.79;82.91;98404.75;107197;1257;71484;-39
2024/03/29 11:21:18;;;;;;;4.70;3.60;;;;;;;10.75;83.49;98404.34;107240;1256;60403;-39
2024/03/29 11:23:49;;;;;;;4.40;3.60;;;;;;;10.76;83.95;98403.11;107191;1257;60450;-39
2024/03/29 11:26:17;;;;;;;5.00;3.10;;;;;;;10.87;84.19;98400.49;107233;1257;73665;-39
2024/03/29 11:28:51;;;;;;;4.40;2.90;;;;;;;10.95;83.69;98407.71;107199;1257;66390;-39
2024/03/29 11:31:22;;;;;;;4.40;3.40;;;;;;;10.93;83.57;98420.66;107268;1258;72839;-39
2024/03/29 11:33:51;;;;;;;5.00;3.40;;;;;;;10.90;83.82;98439.33;107254;1257;62217;-39
2024/03/29 11:36:23;;;;;;;4.40;3.40;;;;;;;10.87;83.94;98446.45;107211;1256;60403;-39
2024/03/29 11:38:58;;;;;;;5.40;4.10;;;;;;;10.91;83.87;98450.24;107223;1256;74208;-39